createdAt,value
2016-11-29T00:00:58.917Z,28.5
2016-11-29T00:01:59.117Z,28.5
2016-11-29T00:03:03.107Z,28.5
2016-11-29T00:03:59.007Z,28.5
2016-11-29T00:05:03.065Z,28.5
2016-11-29T00:05:59.225Z,28.5
2016-11-29T00:07:03.306Z,28.5
2016-11-29T00:07:59.228Z,28.5
2016-11-29T00:09:03.293Z,28.5
2016-11-29T00:10:03.283Z,28.5
2016-11-29T00:11:03.336Z,28.5
2016-11-29T00:11:59.433Z,28.5
2016-11-29T00:13:03.670Z,28.5
2016-11-29T00:14:03.536Z,28.5
2016-11-29T00:14:59.726Z,28.4
2016-11-29T00:16:03.543Z,28.5
2016-11-29T00:17:03.630Z,28.5
2016-11-29T00:18:03.648Z,28.5
2016-11-29T00:19:03.785Z,28.5
2016-11-29T00:19:59.698Z,28.4
2016-11-29T00:20:59.797Z,28.4
2016-11-29T00:22:00.011Z,28.4
2016-11-29T00:23:04.026Z,28.4
2016-11-29T00:24:00.117Z,28.4
2016-11-29T00:25:04.051Z,28.4
2016-11-29T00:26:04.080Z,28.4
2016-11-29T00:27:00.275Z,28.4
2016-11-29T00:28:04.200Z,28.4
2016-11-29T00:29:04.397Z,28.4
2016-11-29T00:30:04.471Z,28.4
2016-11-29T00:31:04.556Z,28.4
2016-11-29T00:32:00.639Z,28.4
2016-11-29T00:33:00.547Z,28.4
2016-11-29T00:34:04.668Z,28.4
2016-11-29T00:35:04.702Z,28.4
2016-11-29T00:36:04.886Z,28.4
2016-11-29T00:37:00.705Z,28.4
2016-11-29T00:38:04.949Z,28.4
2016-11-29T00:39:04.883Z,28.4
2016-11-29T00:40:04.990Z,28.4
2016-11-29T00:41:01.122Z,28.4
2016-11-29T00:42:01.023Z,28.4
2016-11-29T00:43:05.198Z,28.4
2016-11-29T00:44:05.333Z,28.4
2016-11-29T00:45:01.130Z,28.4
2016-11-29T00:46:01.340Z,28.4
2016-11-29T00:47:01.408Z,28.3
2016-11-29T00:48:01.475Z,28.4
2016-11-29T00:49:05.543Z,28.4
2016-11-29T00:50:05.614Z,28.4
2016-11-29T00:51:05.527Z,28.4
2016-11-29T00:52:05.757Z,28.4
2016-11-29T00:53:05.820Z,28.4
2016-11-29T00:54:05.729Z,28.4
2016-11-29T00:55:05.980Z,28.4
2016-11-29T00:56:02.080Z,28.4
2016-11-29T00:57:05.911Z,28.4
2016-11-29T00:58:02.072Z,28.4
2016-11-29T00:59:02.148Z,28.4
2016-11-29T01:00:06.209Z,28.4
2016-11-29T01:01:06.074Z,28.4
2016-11-29T01:02:06.084Z,28.4
2016-11-29T01:03:06.258Z,28.3
2016-11-29T01:04:06.209Z,28.4
2016-11-29T01:05:02.199Z,28.4
2016-11-29T01:06:02.242Z,28.4
2016-11-29T01:07:02.271Z,28.4
2016-11-29T01:08:06.487Z,28.4
2016-11-29T01:09:06.575Z,28.4
2016-11-29T01:10:02.520Z,28.3
2016-11-29T01:11:02.801Z,28.4
2016-11-29T01:12:02.687Z,28.3
2016-11-29T01:13:06.792Z,28.3
2016-11-29T01:14:06.959Z,28.3
2016-11-29T01:15:03.051Z,28.3
2016-11-29T01:16:06.962Z,28.3
2016-11-29T01:17:03.097Z,28.3
2016-11-29T01:18:07.022Z,28.3
2016-11-29T01:19:07.044Z,28.3
2016-11-29T01:20:07.228Z,28.3
2016-11-29T01:21:07.080Z,28.3
2016-11-29T01:22:03.274Z,28.3
2016-11-29T01:23:07.336Z,28.4
2016-11-29T01:24:07.438Z,28.3
2016-11-29T01:25:03.478Z,28.3
2016-11-29T01:26:03.377Z,28.3
2016-11-29T01:27:03.614Z,28.3
2016-11-29T01:28:03.734Z,28.3
2016-11-29T01:29:07.561Z,28.3
2016-11-29T01:30:07.728Z,28.3
2016-11-29T01:31:07.704Z,28.3
2016-11-29T01:32:07.628Z,28.3
2016-11-29T01:33:07.658Z,28.3
2016-11-29T01:34:07.706Z,28.3
2016-11-29T01:35:07.747Z,28.3
2016-11-29T01:36:03.747Z,28.3
2016-11-29T01:37:04.001Z,28.3
2016-11-29T01:38:08.030Z,28.3
2016-11-29T01:39:04.029Z,28.3
2016-11-29T01:40:08.135Z,28.3
2016-11-29T01:41:04.163Z,28.3
2016-11-29T01:42:08.236Z,28.3
2016-11-29T01:43:08.409Z,28.3
2016-11-29T01:44:04.254Z,28.3
2016-11-29T01:45:04.310Z,28.3
2016-11-29T01:46:08.389Z,28.2
2016-11-29T01:47:04.556Z,28.3
2016-11-29T01:48:04.629Z,28.3
2016-11-29T01:49:08.596Z,28.3
2016-11-29T01:50:08.679Z,28.3
2016-11-29T01:51:04.598Z,28.3
2016-11-29T01:52:04.666Z,28.3
2016-11-29T01:53:08.876Z,28.2
2016-11-29T01:54:04.791Z,28.3
2016-11-29T01:55:08.978Z,28.3
2016-11-29T01:56:04.862Z,28.3
2016-11-29T01:57:05.082Z,28.3
2016-11-29T01:58:08.992Z,28.3
2016-11-29T01:59:05.180Z,28.3
2016-11-29T02:00:05.077Z,28.3
2016-11-29T02:01:09.142Z,28.3
2016-11-29T02:02:05.341Z,28.3
2016-11-29T02:03:05.407Z,28.3
2016-11-29T02:04:05.448Z,28.3
2016-11-29T02:05:05.393Z,28.3
2016-11-29T02:06:09.312Z,28.3
2016-11-29T02:07:09.326Z,28.3
2016-11-29T02:08:09.475Z,28.3
2016-11-29T02:09:05.589Z,28.3
2016-11-29T02:10:09.621Z,28.3
2016-11-29T02:11:10.685Z,28.3
2016-11-29T02:12:05.752Z,28.3
2016-11-29T02:13:09.820Z,28.3
2016-11-29T02:14:05.765Z,28.3
2016-11-29T02:15:05.962Z,28.2
2016-11-29T02:16:05.855Z,28.3
2016-11-29T02:17:05.858Z,28.2
2016-11-29T02:18:10.081Z,28.2
2016-11-29T02:19:05.946Z,28.2
2016-11-29T02:20:06.182Z,28.2
2016-11-29T02:21:10.003Z,28.3
2016-11-29T02:22:10.147Z,28.3
2016-11-29T02:23:10.043Z,28.3
2016-11-29T02:24:06.023Z,28.3
2016-11-29T02:25:10.215Z,28.3
2016-11-29T02:26:10.324Z,28.3
2016-11-29T02:27:06.216Z,28.3
2016-11-29T02:28:06.251Z,28.3
2016-11-29T02:29:06.296Z,28.3
2016-11-29T02:30:10.390Z,28.2
2016-11-29T02:31:10.431Z,28.2
2016-11-29T02:32:06.644Z,28.2
2016-11-29T02:33:10.555Z,28.3
2016-11-29T02:34:06.778Z,28.3
2016-11-29T02:35:10.552Z,28.3
2016-11-29T02:36:10.643Z,28.2
2016-11-29T02:37:06.795Z,28.3
2016-11-29T02:38:06.746Z,28.3
2016-11-29T02:39:06.742Z,28.3
2016-11-29T02:40:10.812Z,28.3
2016-11-29T02:41:07.015Z,28.3
2016-11-29T02:42:07.187Z,28.3
2016-11-29T02:43:07.177Z,28.3
2016-11-29T02:44:07.295Z,28.3
2016-11-29T02:45:11.339Z,28.3
2016-11-29T02:46:07.375Z,28.2
2016-11-29T02:47:07.431Z,28.2
2016-11-29T02:48:07.385Z,28.2
2016-11-29T02:49:07.285Z,28.3
2016-11-29T02:50:07.428Z,28.3
2016-11-29T02:51:07.480Z,28.2
2016-11-29T02:52:11.570Z,28.3
2016-11-29T02:53:11.399Z,28.2
2016-11-29T02:54:07.718Z,28.2
2016-11-29T02:55:11.573Z,28.2
2016-11-29T02:56:11.573Z,28.2
2016-11-29T02:57:07.468Z,28.2
2016-11-29T02:58:11.590Z,28.2
2016-11-29T02:59:11.733Z,28.2
2016-11-29T03:00:07.883Z,28.2
2016-11-29T03:01:07.925Z,28.2
2016-11-29T03:02:11.797Z,28.2
2016-11-29T03:03:11.986Z,28.2
2016-11-29T08:20:50.298Z,27.8
2016-11-29T08:21:54.826Z,27.7
2016-11-29T08:22:55.160Z,27.6
2016-11-29T08:23:55.367Z,27.7
2016-11-29T08:24:50.459Z,27.8
2016-11-29T08:25:49.688Z,27.8
2016-11-29T08:26:50.801Z,27.9
2016-11-29T08:27:49.686Z,27.9
2016-11-29T08:28:54.458Z,28.1
2016-11-29T08:29:51.362Z,28.1
2016-11-29T08:30:50.798Z,28.2
2016-11-29T08:31:55.982Z,28.2
2016-11-29T08:32:52.760Z,28.2
2016-11-29T08:33:55.244Z,28.3
2016-11-29T08:34:51.600Z,28.4
2016-11-29T08:35:54.876Z,28.4
2016-11-29T08:36:55.153Z,28.5
2016-11-29T08:37:50.870Z,28.5
2016-11-29T08:38:51.021Z,28.6
2016-11-29T08:39:55.598Z,28.6
2016-11-29T08:40:51.048Z,28.6
2016-11-29T08:41:51.110Z,28.7
2016-11-29T08:42:51.752Z,28.7
2016-11-29T08:43:50.562Z,28.7
2016-11-29T08:44:55.812Z,28.8
2016-11-29T08:45:50.447Z,28.9
2016-11-29T08:46:51.202Z,28.9
2016-11-29T08:47:55.990Z,28.9
2016-11-29T08:48:52.154Z,29
2016-11-29T08:49:56.757Z,29
2016-11-29T08:50:56.833Z,29.1
2016-11-29T08:51:57.677Z,29.1
2016-11-29T08:52:56.939Z,29.1
2016-11-29T08:53:53.098Z,29.2
2016-11-29T08:54:56.617Z,29.2
2016-11-29T08:55:58.285Z,29.2
2016-11-29T08:56:56.273Z,29.3
2016-11-29T08:57:53.059Z,29.3
2016-11-29T08:59:00.924Z,29.3
2016-11-29T08:59:52.795Z,29.4
2016-11-29T09:00:56.299Z,29.4
2016-11-29T09:01:57.544Z,29.1
2016-11-29T09:02:58.323Z,29.5
2016-11-29T09:03:56.881Z,29.5
2016-11-29T09:05:04.591Z,29.5
2016-11-29T09:05:54.621Z,29.5
2016-11-29T09:06:53.139Z,29.6
2016-11-29T09:07:54.382Z,29.6
2016-11-29T09:09:02.877Z,29.6
2016-11-29T09:09:55.551Z,29.6
2016-11-29T09:10:58.790Z,29.7
2016-11-29T09:11:53.332Z,29.8
2016-11-29T09:12:57.550Z,29.8
2016-11-29T09:13:54.420Z,29.8
2016-11-29T09:14:57.493Z,29.9
2016-11-29T09:16:00.083Z,29.9
2016-11-29T09:16:54.174Z,29.9
2016-11-29T09:17:55.732Z,30
2016-11-29T09:18:52.250Z,30
2016-11-29T09:19:57.118Z,30
2016-11-29T09:20:52.346Z,30
2016-11-29T09:21:56.410Z,30
2016-11-29T09:22:53.218Z,30.1
2016-11-29T09:23:53.847Z,30.1
2016-11-29T09:24:59.586Z,30.1
2016-11-29T09:25:56.684Z,30.2
2016-11-29T09:26:59.798Z,30.2
2016-11-29T09:27:54.030Z,30.2
2016-11-29T09:28:53.567Z,30.2
2016-11-29T09:29:53.535Z,30.3
2016-11-29T09:30:57.070Z,30.3
2016-11-29T09:31:58.149Z,30.3
2016-11-29T09:32:57.714Z,30.3
2016-11-29T09:33:58.513Z,30.4
2016-11-29T09:35:00.644Z,30.4
2016-11-29T09:36:00.949Z,30.4
2016-11-29T09:36:58.523Z,30.4
2016-11-29T09:37:56.799Z,30.4
2016-11-29T09:39:00.639Z,30.5
2016-11-29T09:39:54.724Z,30.5
2016-11-29T09:40:54.100Z,30.5
2016-11-29T09:41:53.599Z,30.5
2016-11-29T09:42:58.828Z,30.6
2016-11-29T09:43:58.097Z,30.6
2016-11-29T09:44:53.622Z,30.5
2016-11-29T09:45:53.620Z,30.6
2016-11-29T09:46:53.639Z,30.6
2016-11-29T09:47:57.735Z,30.7
2016-11-29T09:48:53.863Z,30.7
2016-11-29T09:49:55.047Z,30.7
2016-11-29T09:50:58.570Z,30.7
2016-11-29T09:51:57.836Z,30.7
2016-11-29T09:53:00.024Z,30.7
2016-11-29T09:53:55.149Z,30.7
2016-11-29T09:54:56.612Z,30.8
2016-11-29T09:55:54.189Z,30.8
2016-11-29T09:56:59.642Z,30.8
2016-11-29T09:57:58.120Z,30.8
2016-11-29T09:59:00.023Z,30.8
2016-11-29T09:59:57.234Z,30.8
2016-11-29T10:00:54.582Z,30.8
2016-11-29T10:02:01.627Z,30.8
2016-11-29T10:02:59.805Z,30.7
2016-11-29T10:03:54.632Z,30.4
2016-11-29T10:05:01.772Z,30
2016-11-29T10:05:55.771Z,29.7
2016-11-29T10:07:00.847Z,29.3
2016-11-29T10:07:56.685Z,29
2016-11-29T10:08:59.618Z,28.6
2016-11-29T10:10:03.034Z,28.3
2016-11-29T10:10:57.647Z,28
2016-11-29T10:11:58.097Z,27.7
2016-11-29T10:12:59.318Z,27.5
2016-11-29T10:13:56.453Z,27.3
2016-11-29T10:15:07.435Z,27.2
2016-11-29T10:16:00.040Z,27
2016-11-29T10:17:01.822Z,26.9
2016-11-29T10:18:00.158Z,26.8
2016-11-29T10:18:57.954Z,26.6
2016-11-29T10:20:02.004Z,26.6
2016-11-29T10:21:02.193Z,26.5
2016-11-29T10:22:04.642Z,26.5
2016-11-29T10:23:05.313Z,26.7
2016-11-29T10:24:06.022Z,26.9
2016-11-29T10:25:01.257Z,27.2
2016-11-29T10:25:59.914Z,27.4
2016-11-29T10:26:58.623Z,27.6
2016-11-29T10:27:58.967Z,27.8
2016-11-29T10:28:57.229Z,28
2016-11-29T10:29:59.856Z,28.2
2016-11-29T10:31:02.051Z,28.4
2016-11-29T10:32:01.845Z,28.5
2016-11-29T10:33:02.813Z,28.7
2016-11-29T10:34:03.956Z,28.8
2016-11-29T10:35:02.402Z,29
2016-11-29T10:35:57.073Z,29.1
2016-11-29T10:36:59.349Z,29.1
2016-11-29T10:37:59.716Z,29.3
2016-11-29T10:39:01.055Z,29.4
2016-11-29T10:40:08.274Z,29.5
2016-11-29T10:41:02.623Z,29.6
2016-11-29T10:42:03.402Z,29.7
2016-11-29T10:42:58.464Z,29.8
2016-11-29T10:44:02.236Z,29.8
2016-11-29T10:44:58.459Z,29.9
2016-11-29T10:46:02.147Z,29.9
2016-11-29T10:46:58.350Z,30
2016-11-29T10:48:05.022Z,30
2016-11-29T10:48:59.586Z,30
2016-11-29T10:50:00.072Z,30.1
2016-11-29T10:50:56.980Z,30.1
2016-11-29T10:52:00.664Z,30.2
2016-11-29T10:53:03.044Z,30.2
2016-11-29T10:54:06.817Z,30.3
2016-11-29T10:55:05.208Z,30.3
2016-11-29T10:56:06.270Z,30.3
2016-11-29T10:57:04.516Z,30.3
2016-11-29T10:58:01.512Z,30.4
2016-11-29T10:59:03.540Z,30.5
2016-11-29T10:59:58.697Z,30.5
2016-11-29T11:00:58.971Z,30.6
2016-11-29T11:02:00.715Z,30.6
2016-11-29T11:03:04.506Z,30.7
2016-11-29T11:04:03.263Z,30.7
2016-11-29T11:05:07.656Z,30.8
2016-11-29T11:06:05.217Z,30.8
2016-11-29T11:07:08.844Z,30.8
2016-11-29T11:08:08.769Z,30.8
2016-11-29T11:09:05.128Z,30.9
2016-11-29T11:10:10.961Z,30.9
2016-11-29T11:11:05.076Z,30.9
2016-11-29T11:12:04.536Z,30.9
2016-11-29T11:13:00.762Z,30.9
2016-11-29T11:14:04.432Z,30.9
2016-11-29T11:15:03.820Z,31
2016-11-29T11:16:00.945Z,31
2016-11-29T11:17:04.712Z,31
2016-11-29T11:18:04.310Z,31
2016-11-29T11:19:03.464Z,31
2016-11-29T11:20:06.811Z,31
2016-11-29T11:21:05.584Z,31.1
2016-11-29T11:21:59.528Z,31.1
2016-11-29T11:23:03.446Z,31.1
2016-11-29T11:24:02.973Z,31.2
2016-11-29T11:25:00.836Z,31.2
2016-11-29T11:26:08.456Z,31.2
2016-11-29T11:27:04.934Z,31.3
2016-11-29T11:28:05.089Z,31.3
2016-11-29T11:28:59.837Z,31.3
2016-11-29T11:30:04.908Z,31.4
2016-11-29T11:31:07.661Z,31.4
2016-11-29T11:32:02.117Z,31.4
2016-11-29T11:33:03.775Z,31.4
2016-11-29T11:33:59.374Z,31.5
2016-11-29T11:34:59.357Z,31.5
2016-11-29T11:36:04.939Z,31.5
2016-11-29T11:37:02.136Z,31.6
2016-11-29T11:37:59.703Z,31.6
2016-11-29T11:39:00.405Z,31.6
2016-11-29T11:40:06.005Z,31.7
2016-11-29T11:41:07.508Z,31.7
2016-11-29T11:42:03.210Z,31.7
2016-11-29T11:43:04.599Z,31.7
2016-11-29T11:44:03.556Z,31.8
2016-11-29T11:45:03.509Z,31.8
2016-11-29T11:46:07.794Z,31.8
2016-11-29T11:47:07.417Z,31.8
2016-11-29T11:48:10.251Z,31.8
2016-11-29T11:49:05.092Z,31.8
2016-11-29T11:50:01.267Z,31.8
2016-11-29T11:51:07.872Z,31.9
2016-11-29T11:52:07.426Z,31.9
2016-11-29T11:53:02.496Z,31.9
2016-11-29T11:54:03.677Z,31.9
2016-11-29T11:55:17.843Z,31.9
2016-11-29T11:56:13.114Z,31.9
2016-11-29T11:57:06.487Z,32
2016-11-29T11:58:10.565Z,32
2016-11-29T11:59:03.648Z,32
2016-11-29T12:00:06.129Z,32
2016-11-29T12:01:14.945Z,32
2016-11-29T12:03:13.625Z,32
2016-11-29T12:04:04.165Z,32
2016-11-29T12:05:20.979Z,32
2016-11-29T12:06:20.845Z,32
2016-11-29T12:07:14.084Z,32
2016-11-29T12:08:05.174Z,32
2016-11-29T12:09:12.198Z,32
2016-11-29T12:10:18.742Z,32
2016-11-29T12:11:14.392Z,32
2016-11-29T12:12:21.291Z,32
2016-11-29T12:13:12.365Z,32
2016-11-29T12:14:11.405Z,32.1
2016-11-29T12:15:12.852Z,32.1
2016-11-29T12:16:02.585Z,32.1
2016-11-29T12:17:08.161Z,32.1
2016-11-29T12:18:01.697Z,32.1
2016-11-29T12:19:07.825Z,32.2
2016-11-29T12:20:03.049Z,32.2
2016-11-29T12:21:01.962Z,32.2
2016-11-29T12:22:02.148Z,32.2
2016-11-29T12:23:01.996Z,32.3
2016-11-29T12:24:02.989Z,32.3
2016-11-29T12:25:01.618Z,32.2
2016-11-29T12:26:04.535Z,32.2
2016-11-29T12:27:11.875Z,32.2
2016-11-29T12:28:02.296Z,32.2
2016-11-29T12:29:09.801Z,32.2
2016-11-29T12:30:21.132Z,32.2
2016-11-29T12:31:18.562Z,32.2
2016-11-29T12:32:10.845Z,32.1
2016-11-29T12:33:10.153Z,32.1
2016-11-29T12:34:12.025Z,32.1
2016-11-29T12:35:23.661Z,32.1
2016-11-29T12:36:09.046Z,32.1
2016-11-29T12:37:12.400Z,32.1
2016-11-29T12:38:13.241Z,32
2016-11-29T12:39:08.983Z,32
2016-11-29T12:40:20.201Z,32
2016-11-29T12:41:19.606Z,32
2016-11-29T12:42:17.643Z,32
2016-11-29T12:43:20.691Z,32
2016-11-29T12:44:21.924Z,32
2016-11-29T12:45:15.961Z,31.9
2016-11-29T12:46:17.947Z,31.9
2016-11-29T12:47:19.257Z,31.9
2016-11-29T12:48:21.827Z,31.9
2016-11-29T12:49:19.543Z,31.8
2016-11-29T12:50:08.443Z,31.9
2016-11-29T12:51:24.970Z,31.9
2016-11-29T12:52:14.174Z,31.9
2016-11-29T12:53:12.401Z,31.9
2016-11-29T12:54:21.695Z,31.9
2016-11-29T12:55:12.446Z,31.9
2016-11-29T12:56:07.685Z,31.9
2016-11-29T12:57:10.396Z,31.9
2016-11-29T12:58:09.055Z,31.8
2016-11-29T12:59:08.093Z,31.8
2016-11-29T13:00:10.751Z,31.8
2016-11-29T13:01:05.558Z,31.8
2016-11-29T13:02:11.233Z,31.8
2016-11-29T13:03:16.895Z,31.8
2016-11-29T13:04:13.467Z,31.8
2016-11-29T13:05:18.644Z,31.8
2016-11-29T13:06:11.495Z,31.6
2016-11-29T13:07:12.700Z,31.3
2016-11-29T13:08:19.365Z,31.1
2016-11-29T13:09:09.816Z,30.9
2016-11-29T13:10:06.785Z,30.7
2016-11-29T13:11:12.330Z,30.4
2016-11-29T13:12:07.773Z,30.4
2016-11-29T13:13:07.987Z,30.2
2016-11-29T13:14:12.571Z,30
2016-11-29T13:15:18.607Z,29.9
2016-11-29T13:16:09.128Z,29.7
2016-11-29T13:17:11.256Z,29.6
2016-11-29T13:18:08.903Z,29.4
2016-11-29T13:19:11.360Z,29.3
2016-11-29T13:20:11.643Z,29.2
2016-11-29T13:21:06.031Z,29
2016-11-29T13:22:10.480Z,28.9
2016-11-29T13:23:11.521Z,28.9
2016-11-29T13:24:11.298Z,28.8
2016-11-29T13:25:11.545Z,28.7
2016-11-29T13:26:12.661Z,28.6
2016-11-29T13:27:12.995Z,28.6
2016-11-29T13:28:11.840Z,28.6
2016-11-29T13:29:11.335Z,28.6
2016-11-29T13:30:08.083Z,28.5
2016-11-29T13:31:10.648Z,28.4
2016-11-29T13:32:13.588Z,28.3
2016-11-29T13:33:07.926Z,28.3
2016-11-29T13:34:12.257Z,28.1
2016-11-29T13:35:15.574Z,28
2016-11-29T13:36:09.335Z,28
2016-11-29T13:37:12.497Z,27.9
2016-11-29T13:38:15.252Z,27.8
2016-11-29T13:39:08.231Z,27.8
2016-11-29T13:40:15.123Z,27.7
2016-11-29T13:41:10.332Z,27.7
2016-11-29T13:42:12.233Z,27.7
2016-11-29T13:43:09.599Z,27.6
2016-11-29T13:44:09.479Z,27.6
2016-11-29T13:45:14.530Z,27.6
2016-11-29T13:46:12.294Z,27.6
2016-11-29T13:47:06.464Z,27.6
2016-11-29T13:48:12.111Z,27.6
2016-11-29T13:49:11.222Z,27.6
2016-11-29T13:50:12.721Z,27.6
2016-11-29T13:51:17.601Z,27.6
2016-11-29T13:52:21.961Z,27.6
2016-11-29T13:53:18.719Z,27.5
2016-11-29T13:54:33.553Z,27.5
2016-11-29T13:56:29.183Z,27.5
2016-11-29T13:57:38.015Z,27.5
2016-11-29T13:58:42.195Z,27.4
2016-11-29T13:59:36.132Z,27.4
2016-11-29T14:00:37.913Z,27.4
2016-11-29T14:01:46.246Z,27.3
2016-11-29T14:02:34.037Z,27.3
2016-11-29T14:04:25.971Z,27.2
2016-11-29T14:05:38.069Z,27.1
2016-11-29T14:06:28.386Z,27.1
2016-11-29T14:07:33.477Z,27.1
2016-11-29T14:08:36.913Z,27
2016-11-29T14:09:31.162Z,27
2016-11-29T14:10:39.869Z,26.9
2016-11-29T14:12:47.160Z,26.8
2016-11-29T14:13:36.208Z,26.8
2016-11-29T14:14:35.561Z,26.8
2016-11-29T14:15:35.876Z,26.7
2016-11-29T14:16:39.182Z,26.8
2016-11-29T14:17:32.019Z,26.7
2016-11-29T14:18:38.486Z,26.7
2016-11-29T14:19:33.368Z,26.7
2016-11-29T14:20:21.798Z,26.7
2016-11-29T14:21:28.596Z,26.7
2016-11-29T14:22:32.615Z,26.7
2016-11-29T14:23:25.376Z,26.7
2016-11-29T14:24:26.092Z,26.6
2016-11-29T14:25:38.250Z,26.6
2016-11-29T14:26:33.041Z,26.6
2016-11-29T14:27:31.469Z,26.5
2016-11-29T14:28:42.104Z,26.5
2016-11-29T14:29:37.836Z,26.5
2016-11-29T14:30:34.075Z,26.4
2016-11-29T14:31:31.159Z,26.4
2016-11-29T14:32:29.763Z,26.5
2016-11-29T14:33:23.847Z,26.5
2016-11-29T14:34:29.404Z,26.6
2016-11-29T14:35:40.904Z,26.8
2016-11-29T14:36:30.560Z,27
2016-11-29T14:37:30.620Z,27.2
2016-11-29T14:38:25.435Z,27.4
2016-11-29T14:39:27.627Z,27.6
2016-11-29T14:40:31.759Z,27.7
2016-11-29T14:41:26.317Z,27.9
2016-11-29T14:42:21.623Z,28
2016-11-29T14:43:19.027Z,28.2
2016-11-29T14:44:16.383Z,28.3
2016-11-29T14:45:24.776Z,28.4
2016-11-29T14:46:15.660Z,28.5
2016-11-29T14:47:25.018Z,28.6
2016-11-29T14:48:13.657Z,28.7
2016-11-29T14:49:20.535Z,28.8
2016-11-29T14:50:09.895Z,28.9
2016-11-29T14:51:10.898Z,29
2016-11-29T14:52:14.652Z,29
2016-11-29T14:53:14.230Z,29.1
2016-11-29T14:54:14.934Z,29.1
2016-11-29T14:55:11.226Z,29.2
2016-11-29T14:56:09.656Z,29.2
2016-11-29T14:57:13.555Z,29.2
2016-11-29T14:58:10.107Z,29.2
2016-11-29T14:59:15.539Z,29.2
2016-11-29T15:00:10.378Z,29.2
2016-11-29T15:01:10.274Z,29.3
2016-11-29T15:02:09.771Z,29.3
2016-11-29T15:03:13.827Z,29.3
2016-11-29T15:04:16.366Z,29.3
2016-11-29T15:05:15.174Z,29.3
2016-11-29T15:06:14.825Z,29.3
2016-11-29T15:07:15.209Z,29.3
2016-11-29T15:08:11.619Z,29.4
2016-11-29T15:09:12.272Z,29.4
2016-11-29T15:10:16.828Z,29.4
2016-11-29T15:11:11.913Z,29.4
2016-11-29T15:12:11.705Z,29.4
2016-11-29T15:13:15.102Z,29.4
2016-11-29T15:14:10.385Z,29.4
2016-11-29T15:15:10.563Z,29.4
2016-11-29T15:16:14.787Z,29.5
2016-11-29T15:17:10.794Z,29.4
2016-11-29T15:18:14.719Z,29.5
2016-11-29T15:19:11.820Z,29.5
2016-11-29T15:20:19.623Z,29.5
2016-11-29T15:21:14.257Z,29.5
2016-11-29T15:22:12.673Z,29.5
2016-11-29T15:23:14.955Z,29.5
2016-11-29T15:24:12.166Z,29.5
2016-11-29T15:25:11.249Z,29.5
2016-11-29T15:26:15.135Z,29.5
2016-11-29T15:27:17.353Z,29.5
2016-11-29T15:28:15.178Z,29.5
2016-11-29T15:29:13.314Z,29.4
2016-11-29T15:30:15.366Z,29.5
2016-11-29T15:31:12.186Z,29.5
2016-11-29T15:32:16.764Z,29.4
2016-11-29T15:33:15.713Z,29.5
2016-11-29T15:34:11.764Z,29.5
2016-11-29T15:35:11.641Z,29.5
2016-11-29T15:36:16.479Z,29.5
2016-11-29T15:37:16.164Z,29.5
2016-11-29T15:38:16.395Z,29.5
2016-11-29T15:39:11.813Z,29.4
2016-11-29T15:40:16.588Z,29.5
2016-11-29T15:41:16.526Z,29.4
2016-11-29T15:42:11.904Z,29.5
2016-11-29T15:43:13.188Z,29.5
2016-11-29T15:44:12.561Z,29.4
2016-11-29T15:45:12.174Z,29.4
2016-11-29T15:46:12.701Z,29.4
2016-11-29T15:47:21.414Z,29.4
2016-11-29T15:48:12.368Z,29.4
2016-11-29T15:49:17.032Z,29.4
2016-11-29T15:50:12.369Z,29.4
2016-11-29T15:51:24.766Z,29.4
2016-11-29T15:52:12.647Z,29.4
2016-11-29T15:53:17.315Z,29.4
2016-11-29T15:54:17.567Z,29.4
2016-11-29T15:55:17.997Z,29.4
2016-11-29T15:56:16.774Z,29.4
2016-11-29T15:57:16.907Z,29.4
2016-11-29T15:58:13.021Z,29.4
2016-11-29T15:59:17.521Z,29.4
2016-11-29T16:00:17.777Z,29.4
2016-11-29T16:01:17.892Z,29.4
2016-11-29T16:02:17.184Z,29.3
2016-11-29T16:03:18.725Z,29.4
2016-11-29T16:04:14.669Z,29.4
2016-11-29T16:05:13.366Z,29.4
2016-11-29T16:06:17.334Z,29.4
2016-11-29T16:07:19.185Z,29.4
2016-11-29T16:08:13.902Z,29.3
2016-11-29T16:09:17.574Z,29.3
2016-11-29T16:10:17.624Z,29.3
2016-11-29T16:11:17.591Z,29.3
2016-11-29T16:12:18.144Z,29.3
2016-11-29T16:13:17.774Z,29.3
2016-11-29T16:14:13.726Z,29.3
2016-11-29T16:15:17.804Z,29.3
2016-11-29T16:16:13.675Z,29.3
2016-11-29T16:17:15.103Z,29.3
2016-11-29T16:18:19.261Z,29.3
2016-11-29T16:19:13.920Z,29.3
2016-11-29T16:20:15.555Z,29.3
2016-11-29T16:21:15.817Z,29.3
2016-11-29T16:22:18.789Z,29.3
2016-11-29T16:23:14.212Z,29.3
2016-11-29T16:24:18.921Z,29.3
2016-11-29T16:25:18.245Z,29.3
2016-11-29T16:26:18.295Z,29.3
2016-11-29T16:27:19.591Z,29.3
2016-11-29T16:28:18.369Z,29.3
2016-11-29T16:29:14.951Z,29.3
2016-11-29T16:30:18.515Z,29.3
2016-11-29T16:31:14.560Z,29.3
2016-11-29T16:32:18.456Z,29.3
2016-11-29T16:33:15.105Z,29.2
2016-11-29T16:34:18.582Z,29.3
2016-11-29T16:35:19.754Z,29.3
2016-11-29T16:36:15.195Z,29.2
2016-11-29T16:37:18.622Z,29.3
2016-11-29T16:38:19.528Z,29.2
2016-11-29T16:39:19.498Z,29.3
2016-11-29T16:40:15.518Z,29.3
2016-11-29T16:41:15.363Z,29.2
2016-11-29T16:42:19.363Z,29.2
2016-11-29T16:43:18.938Z,29.2
2016-11-29T16:44:15.737Z,29.3
2016-11-29T16:45:20.027Z,29.3
2016-11-29T16:46:17.297Z,29.3
2016-11-29T16:47:21.857Z,29.3
2016-11-29T16:48:19.464Z,29.3
2016-11-29T16:49:15.503Z,29.3
2016-11-29T16:50:16.130Z,29.3
2016-11-29T16:51:19.464Z,29.3
2016-11-29T16:52:16.958Z,29.2
2016-11-29T16:53:16.207Z,29.2
2016-11-29T16:54:19.802Z,29.2
2016-11-29T16:55:21.219Z,29.2
2016-11-29T16:56:20.299Z,29.2
2016-11-29T16:57:16.979Z,29.2
2016-11-29T16:58:19.774Z,29.2
2016-11-29T16:59:20.869Z,29.3
2016-11-29T17:00:15.900Z,29.3
2016-11-29T17:01:20.589Z,29.3
2016-11-29T17:02:20.057Z,29.3
2016-11-29T17:03:21.435Z,29.3
2016-11-29T17:04:19.574Z,29.3
2016-11-29T17:05:22.969Z,29.2
2016-11-29T17:06:22.168Z,29.3
2016-11-29T17:07:16.360Z,29.2
2016-11-29T17:08:16.775Z,29.2
2016-11-29T17:09:17.675Z,29.2
2016-11-29T17:10:16.197Z,29.2
2016-11-29T17:11:20.353Z,29.2
2016-11-29T17:12:21.500Z,29.2
2016-11-29T17:13:17.020Z,29.2
2016-11-29T17:14:16.654Z,29.2
2016-11-29T17:15:20.531Z,29.2
2016-11-29T17:16:21.267Z,29.2
2016-11-29T17:17:16.694Z,29.2
2016-11-29T17:18:18.723Z,29.2
2016-11-29T17:19:23.213Z,29.2
2016-11-29T17:20:17.978Z,29.2
2016-11-29T17:21:18.538Z,29.2
2016-11-29T17:22:17.806Z,29.2
2016-11-29T17:23:17.283Z,29.2
2016-11-29T17:24:21.525Z,29.2
2016-11-29T17:25:16.961Z,29.2
2016-11-29T17:26:18.345Z,29.2
2016-11-29T17:27:17.051Z,29.2
2016-11-29T17:28:16.921Z,29.2
2016-11-29T17:29:20.950Z,29.2
2016-11-29T17:30:21.190Z,29.2
2016-11-29T17:31:21.205Z,29.2
2016-11-29T17:32:17.738Z,29.2
2016-11-29T17:33:17.113Z,29.2
2016-11-29T17:34:17.286Z,29.2
2016-11-29T17:35:17.173Z,29.1
2016-11-29T17:36:21.854Z,29.2
2016-11-29T17:37:17.420Z,29.1
2016-11-29T17:38:17.232Z,29.1
2016-11-29T17:39:17.334Z,29.1
2016-11-29T17:40:17.404Z,29.2
2016-11-29T17:41:17.472Z,29.1
2016-11-29T17:42:21.654Z,29.2
2016-11-29T17:43:17.534Z,29.1
2016-11-29T17:44:21.706Z,29.2
2016-11-29T17:45:17.593Z,29.2
2016-11-29T17:46:17.778Z,29.2
2016-11-29T17:47:22.468Z,29.2
2016-11-29T17:48:17.910Z,29.1
2016-11-29T17:49:18.454Z,29.1
2016-11-29T17:50:18.033Z,29.1
2016-11-29T17:51:22.126Z,29.1
2016-11-29T17:52:18.228Z,29.1
2016-11-29T17:53:22.238Z,29.1
2016-11-29T17:54:25.084Z,29.1
2016-11-29T17:56:55.558Z,29
2016-11-29T17:57:52.133Z,29
2016-11-29T17:58:51.450Z,29
2016-11-29T17:59:55.544Z,29
2016-11-29T18:00:55.636Z,29
2016-11-29T18:01:55.809Z,29
2016-11-29T18:02:51.776Z,29
2016-11-29T18:03:57.041Z,29
2016-11-29T18:04:51.982Z,29
2016-11-29T18:05:52.874Z,29
2016-11-29T18:06:52.093Z,29.1
2016-11-29T18:07:55.979Z,29
2016-11-29T18:08:52.147Z,29
2016-11-29T18:09:56.138Z,29
2016-11-29T18:10:53.571Z,29
2016-11-29T18:11:56.137Z,29
2016-11-29T18:12:56.421Z,29
2016-11-29T18:13:52.319Z,29
2016-11-29T18:14:53.688Z,29
2016-11-29T18:15:53.281Z,29
2016-11-29T18:16:52.655Z,29
2016-11-29T18:17:57.138Z,29
2016-11-29T18:18:56.710Z,29
2016-11-29T18:19:52.670Z,29
2016-11-29T18:20:52.710Z,29
2016-11-29T18:21:52.786Z,29
2016-11-29T18:22:52.719Z,29
2016-11-29T18:23:52.848Z,29
2016-11-29T18:24:52.909Z,29
2016-11-29T18:25:52.729Z,29
2016-11-29T18:26:56.816Z,29
2016-11-29T18:27:57.042Z,29
2016-11-29T18:28:52.931Z,29
2016-11-29T18:29:53.215Z,29
2016-11-29T18:30:53.275Z,29
2016-11-29T18:31:53.075Z,29
2016-11-29T18:32:57.348Z,29
2016-11-29T18:33:57.349Z,29
2016-11-29T18:34:53.373Z,29
2016-11-29T18:35:57.350Z,29
2016-11-29T18:36:57.592Z,29
2016-11-29T18:37:57.599Z,29
2016-11-29T18:38:57.459Z,29
2016-11-29T18:39:57.494Z,29
2016-11-29T18:40:53.526Z,29
2016-11-29T18:41:57.525Z,29
2016-11-29T18:42:57.718Z,29
2016-11-29T18:43:57.587Z,29
2016-11-29T18:44:57.646Z,29
2016-11-29T18:45:57.844Z,29
2016-11-29T18:46:57.900Z,29
2016-11-29T18:47:58.003Z,29
2016-11-29T18:48:53.815Z,29